Terminal Aerodrome Forecast
Issued by NWS Pocatello, ID

Home | Current Version | Previous Version | Text Only | Print | Product List | Glossary On
Versions: 1 2 3 4 5 6 7 8 9 10 11 12 13 14
000
FTUS45 KPIH 040520
TAFIDA
TAF
KIDA 040520Z 0406/0506 VRB06KT P6SM BKN120
     FM041900 22011KT P6SM VCTS SCT080CB OVC120
     FM050400 VRB06KT P6SM SCT120=

USA.gov is the U.S. government's official web portal to all federal, state and local government web resources and services.